Time;durP1;ratioP1;P1;durP2;ratioP2;P2;SDS_P1;SDS_P2;PMS_P1;PMS_P2;Temp;Humidity;BMP_temperature;BMP_pressure;BME280_temperature;BME280_humidity;BME280_pressure;Samples;Min_cycle;Max_cycle;Signal;HPM_P1;HPM_P2
2020/12/18 00:00:23;;;;;;;31.13;28.00;;;5.60;99.90;;;;;;4990592;28;20460;-86
2020/12/18 00:02:50;;;;;;;29.43;26.73;;;5.60;99.90;;;;;;4990222;28;20493;-86
2020/12/18 00:05:16;;;;;;;32.50;29.10;;;5.60;99.90;;;;;;4990209;28;20454;-85
2020/12/18 00:07:43;;;;;;;28.53;26.00;;;5.60;99.90;;;;;;5005462;28;20806;-88
2020/12/18 00:10:09;;;;;;;29.13;26.43;;;5.60;99.90;;;;;;5000673;28;20998;-87
2020/12/18 00:12:35;;;;;;;31.70;27.83;;;5.60;99.90;;;;;;4994702;28;20455;-86
2020/12/18 00:15:01;;;;;;;30.50;27.60;;;5.50;99.90;;;;;;4994448;28;20486;-86
2020/12/18 00:17:27;;;;;;;29.20;26.37;;;5.50;99.90;;;;;;4994279;28;20494;-86
2020/12/18 00:19:54;;;;;;;31.60;28.60;;;5.50;99.90;;;;;;4994406;28;20461;-84
2020/12/18 00:22:20;;;;;;;30.97;28.27;;;5.50;99.90;;;;;;4994275;28;20497;-86
2020/12/18 00:24:47;;;;;;;30.80;28.00;;;5.50;99.90;;;;;;4993823;28;20457;-85
2020/12/18 00:27:13;;;;;;;30.13;26.93;;;5.50;99.90;;;;;;4994234;28;20448;-86
2020/12/18 00:29:39;;;;;;;29.83;27.30;;;5.40;99.90;;;;;;4993950;28;20457;-86
2020/12/18 00:32:05;;;;;;;32.20;29.10;;;5.40;99.90;;;;;;4993914;28;20458;-87
2020/12/18 00:34:32;;;;;;;30.93;26.80;;;5.30;99.90;;;;;;4994159;28;20451;-84
2020/12/18 00:36:59;;;;;;;30.67;26.93;;;5.30;99.90;;;;;;4994472;28;20452;-84
2020/12/18 00:39:25;;;;;;;29.03;26.60;;;5.30;99.90;;;;;;4993530;28;21158;-86
2020/12/18 00:41:52;;;;;;;32.37;29.57;;;5.30;99.90;;;;;;4993697;28;20495;-81
2020/12/18 00:44:18;;;;;;;32.00;29.17;;;5.30;99.90;;;;;;4993770;28;20536;-81
2020/12/18 00:46:44;;;;;;;30.53;27.53;;;5.20;99.90;;;;;;4993783;28;20455;-81
2020/12/18 00:49:11;;;;;;;30.07;27.13;;;5.20;99.90;;;;;;4993910;28;20452;-81
2020/12/18 00:51:37;;;;;;;28.70;26.30;;;5.20;99.90;;;;;;4993542;28;20450;-80
2020/12/18 00:54:04;;;;;;;31.93;28.93;;;5.20;99.90;;;;;;4996654;28;20549;-80
2020/12/18 00:56:30;;;;;;;29.70;27.10;;;5.20;99.90;;;;;;5005466;28;20466;-81
2020/12/18 00:58:56;;;;;;;31.10;28.30;;;5.20;99.90;;;;;;5013599;28;20447;-81
2020/12/18 01:01:22;;;;;;;30.67;27.97;;;5.10;99.90;;;;;;5010315;28;20484;-81
2020/12/18 01:03:49;;;;;;;29.80;26.97;;;5.10;99.90;;;;;;4993943;28;20514;-82
2020/12/18 01:06:15;;;;;;;33.43;30.03;;;5.00;99.90;;;;;;4993226;28;20455;-83
2020/12/18 01:08:41;;;;;;;30.63;27.93;;;5.00;99.90;;;;;;4993325;28;21000;-82
2020/12/18 01:11:08;;;;;;;32.37;29.57;;;4.90;99.90;;;;;;4993103;28;20513;-81
2020/12/18 01:13:35;;;;;;;28.40;26.03;;;4.90;99.90;;;;;;4992689;28;20864;-81
2020/12/18 01:16:01;;;;;;;29.43;27.00;;;4.90;99.90;;;;;;4992939;28;20455;-80
2020/12/18 01:18:28;;;;;;;29.20;26.70;;;4.90;99.90;;;;;;4992379;28;20456;-81
2020/12/18 01:20:54;;;;;;;28.93;26.30;;;4.80;99.90;;;;;;4992421;28;20959;-80
2020/12/18 01:23:20;;;;;;;32.47;29.47;;;4.80;99.90;;;;;;4992403;28;20788;-84
2020/12/18 01:25:46;;;;;;;32.73;29.77;;;4.80;99.90;;;;;;4992757;28;20455;-83
2020/12/18 01:28:13;;;;;;;31.63;28.83;;;4.80;99.90;;;;;;4992533;28;20459;-85
2020/12/18 01:30:40;;;;;;;33.97;30.87;;;4.80;99.90;;;;;;4992784;28;20455;-84
2020/12/18 01:33:06;;;;;;;31.00;28.37;;;4.80;99.90;;;;;;4992598;28;20464;-84
2020/12/18 01:35:32;;;;;;;32.17;29.03;;;4.80;99.90;;;;;;4992418;28;20454;-84
2020/12/18 01:37:58;;;;;;;34.13;30.83;;;4.90;99.90;;;;;;4992587;28;20455;-83
2020/12/18 01:40:24;;;;;;;38.13;34.57;;;5.00;99.90;;;;;;4992273;28;20450;-83
2020/12/18 01:42:50;;;;;;;33.37;30.47;;;5.00;99.90;;;;;;4991989;28;20488;-83
2020/12/18 01:45:17;;;;;;;34.07;31.20;;;5.10;99.90;;;;;;4992161;28;20447;-83
2020/12/18 01:47:45;;;;;;;33.27;30.17;;;5.10;99.90;;;;;;4992392;28;20967;-81
2020/12/18 01:50:11;;;;;;;34.80;31.93;;;5.00;99.90;;;;;;4992170;28;20856;-81
2020/12/18 01:52:37;;;;;;;30.93;28.37;;;5.10;99.90;;;;;;4991548;28;20479;-81
2020/12/18 01:55:05;;;;;;;34.57;31.33;;;5.00;99.90;;;;;;4991742;28;20454;-81
2020/12/18 01:57:33;;;;;;;34.63;31.43;;;4.90;99.90;;;;;;4991959;28;20517;-82
2020/12/18 02:00:01;;;;;;;33.67;30.73;;;4.90;99.90;;;;;;4992245;28;20454;-81
2020/12/18 02:02:29;;;;;;;32.93;30.03;;;4.80;99.90;;;;;;4992224;28;20854;-81
2020/12/18 02:04:55;;;;;;;32.80;29.80;;;4.80;99.90;;;;;;4991920;28;20447;-81
2020/12/18 02:07:23;;;;;;;34.10;30.73;;;4.80;99.90;;;;;;4991726;28;21106;-73
2020/12/18 02:27:59;;;;;;;34.33;31.00;;;4.50;99.90;;;;;;5247843;23;20498;-83
2020/12/18 02:30:25;;;;;;;31.80;28.83;;;4.60;99.90;;;;;;4983722;28;21121;-87
2020/12/18 02:32:51;;;;;;;31.23;28.37;;;4.60;99.90;;;;;;4981999;28;20506;-86
2020/12/18 02:35:17;;;;;;;32.33;29.30;;;4.60;99.90;;;;;;4972184;28;20966;-86
2020/12/18 02:37:43;;;;;;;31.47;28.53;;;4.60;99.90;;;;;;4971893;28;20451;-84
2020/12/18 02:40:09;;;;;;;30.60;27.73;;;4.60;99.90;;;;;;4971959;28;20459;-85
2020/12/18 02:42:36;;;;;;;32.10;28.93;;;4.60;99.90;;;;;;4971717;28;20492;-81
2020/12/18 02:45:03;;;;;;;30.10;27.40;;;4.60;99.90;;;;;;4971981;28;20455;-81
2020/12/18 02:47:29;;;;;;;31.60;28.70;;;4.60;99.90;;;;;;4972135;28;20821;-81
2020/12/18 02:49:55;;;;;;;30.70;28.03;;;4.70;99.90;;;;;;4971658;28;20470;-80
2020/12/18 02:52:21;;;;;;;33.03;30.27;;;4.60;99.90;;;;;;4971671;28;20447;-81
2020/12/18 02:54:48;;;;;;;33.63;30.50;;;4.60;99.90;;;;;;4971797;28;20455;-82
2020/12/18 02:57:14;;;;;;;31.03;28.10;;;4.60;99.90;;;;;;4971690;28;20448;-81
2020/12/18 02:59:40;;;;;;;32.97;30.10;;;4.60;99.90;;;;;;4971946;28;20452;-84
2020/12/18 03:02:07;;;;;;;34.50;31.50;;;4.60;99.90;;;;;;4974778;28;20495;-85
2020/12/18 03:04:33;;;;;;;36.87;33.30;;;4.60;99.90;;;;;;4994545;28;20431;-84
2020/12/18 03:06:59;;;;;;;37.67;34.10;;;4.60;99.90;;;;;;4991247;28;20945;-80
2020/12/18 03:09:25;;;;;;;37.70;33.80;;;4.60;99.90;;;;;;4971868;28;20536;-81
2020/12/18 03:11:51;;;;;;;33.80;30.90;;;4.70;99.90;;;;;;4971076;28;20475;-80
2020/12/18 03:14:17;;;;;;;34.77;31.53;;;4.80;99.90;;;;;;4971740;28;20456;-81
2020/12/18 03:16:44;;;;;;;34.20;31.20;;;4.80;99.90;;;;;;4972165;28;20948;-86
2020/12/18 03:19:11;;;;;;;33.90;30.83;;;4.80;99.90;;;;;;4973761;28;21033;-85
2020/12/18 03:21:38;;;;;;;34.67;31.67;;;4.80;99.90;;;;;;4983070;28;20507;-88
2020/12/18 03:24:04;;;;;;;36.03;32.70;;;4.90;99.90;;;;;;4975599;28;20794;-86
2020/12/18 03:26:30;;;;;;;35.67;32.37;;;4.90;99.90;;;;;;4971428;28;20987;-85
2020/12/18 03:28:56;;;;;;;35.23;32.23;;;5.00;99.90;;;;;;4971650;28;20487;-86
2020/12/18 03:31:22;;;;;;;34.43;31.40;;;5.00;99.90;;;;;;4971559;28;20444;-86
2020/12/18 03:33:48;;;;;;;36.20;33.10;;;5.00;99.90;;;;;;4972097;28;20486;-85
2020/12/18 03:36:15;;;;;;;34.57;31.47;;;5.10;99.90;;;;;;4972010;28;20506;-84
2020/12/18 03:38:42;;;;;;;34.40;31.33;;;5.10;99.90;;;;;;4971530;28;20525;-83
2020/12/18 03:41:08;;;;;;;33.53;30.47;;;5.10;99.90;;;;;;4971477;28;20973;-84
2020/12/18 03:43:34;;;;;;;36.97;33.67;;;5.10;99.90;;;;;;4975452;28;20459;-84
2020/12/18 03:46:01;;;;;;;33.70;30.57;;;5.10;99.90;;;;;;4975383;28;20453;-82
2020/12/18 03:48:27;;;;;;;33.07;30.23;;;5.00;99.90;;;;;;4975278;28;20456;-83
2020/12/18 03:50:53;;;;;;;33.80;30.73;;;5.00;99.90;;;;;;4977019;28;20528;-83
2020/12/18 03:53:20;;;;;;;30.13;27.63;;;5.00;99.90;;;;;;4981359;28;20451;-82
2020/12/18 03:55:46;;;;;;;32.57;29.90;;;5.00;99.90;;;;;;4977900;28;20457;-84
2020/12/18 03:58:12;;;;;;;29.17;26.93;;;5.10;99.90;;;;;;4974676;28;20457;-83
2020/12/18 04:00:39;;;;;;;30.53;27.80;;;5.00;99.90;;;;;;4974586;28;20695;-82
2020/12/18 04:03:05;;;;;;;30.30;27.73;;;5.00;99.90;;;;;;4974932;28;20485;-82
2020/12/18 04:05:31;;;;;;;32.47;29.67;;;5.00;99.90;;;;;;4974749;28;20453;-83
2020/12/18 04:07:58;;;;;;;34.20;31.00;;;5.10;99.90;;;;;;4974477;28;20455;-83
2020/12/18 04:10:24;;;;;;;32.97;30.17;;;5.10;99.90;;;;;;4974460;28;20875;-83
2020/12/18 04:12:51;;;;;;;31.40;28.80;;;5.10;99.90;;;;;;4974599;28;20784;-85
2020/12/18 04:15:17;;;;;;;32.17;29.40;;;5.10;99.90;;;;;;4975091;28;20471;-86
2020/12/18 04:17:45;;;;;;;36.63;33.37;;;5.00;99.90;;;;;;4974582;28;20800;-86
2020/12/18 04:20:11;;;;;;;31.03;28.27;;;5.10;99.90;;;;;;4974568;28;20521;-85
2020/12/18 04:22:37;;;;;;;30.33;27.83;;;5.10;99.90;;;;;;4974319;28;20493;-82
2020/12/18 04:25:05;;;;;;;33.27;30.43;;;5.20;99.90;;;;;;4974659;28;20460;-82
2020/12/18 04:27:32;;;;;;;32.33;29.57;;;5.20;99.90;;;;;;4974446;28;20483;-83
2020/12/18 04:29:58;;;;;;;32.50;29.70;;;5.20;99.90;;;;;;4974157;28;20455;-81
2020/12/18 04:32:24;;;;;;;31.83;29.23;;;5.10;99.90;;;;;;4974125;28;20444;-81
2020/12/18 04:34:50;;;;;;;31.20;28.00;;;5.10;99.90;;;;;;4974279;28;20863;-82
2020/12/18 04:37:16;;;;;;;30.80;28.20;;;5.10;99.90;;;;;;4974475;28;20504;-86
2020/12/18 04:39:42;;;;;;;33.43;30.33;;;5.10;99.90;;;;;;4975240;28;20521;-87
2020/12/18 04:42:09;;;;;;;28.30;26.00;;;5.00;99.90;;;;;;4973935;28;20480;-85
2020/12/18 04:44:36;;;;;;;30.50;27.73;;;5.00;99.90;;;;;;4974427;28;20456;-85
2020/12/18 04:47:03;;;;;;;30.33;27.73;;;5.00;99.90;;;;;;4974235;28;20456;-86
2020/12/18 04:49:30;;;;;;;30.47;27.70;;;5.00;99.90;;;;;;4974318;28;20458;-81
2020/12/18 04:52:00;;;;;;;27.37;24.47;;;5.10;99.90;;;;;;4973830;28;20651;-80
2020/12/18 04:54:28;;;;;;;29.73;27.20;;;5.10;99.90;;;;;;4972609;28;20456;-81
2020/12/18 04:56:55;;;;;;;31.67;28.53;;;5.20;99.90;;;;;;4973651;28;21192;-81
2020/12/18 04:59:24;;;;;;;29.57;26.97;;;5.20;99.90;;;;;;4974120;28;20543;-89
2020/12/18 05:01:53;;;;;;;28.50;26.03;;;5.20;99.90;;;;;;4974410;28;20545;-86
2020/12/18 05:04:21;;;;;;;29.43;26.60;;;5.20;99.90;;;;;;4973760;28;20548;-86
2020/12/18 05:06:47;;;;;;;32.50;29.70;;;5.20;99.90;;;;;;4973878;28;20546;-88
2020/12/18 05:09:13;;;;;;;29.20;26.37;;;5.20;99.90;;;;;;4973793;28;20449;-87
2020/12/18 05:11:39;;;;;;;31.67;28.77;;;5.20;99.90;;;;;;4973765;28;20454;-85
2020/12/18 05:14:06;;;;;;;31.40;28.30;;;5.20;99.90;;;;;;4974395;28;20510;-85
2020/12/18 05:16:32;;;;;;;30.10;27.40;;;5.20;99.90;;;;;;4978348;28;20453;-82
2020/12/18 05:19:04;;;;;;;30.60;27.80;;;5.20;99.90;;;;;;4993571;28;20447;-82
2020/12/18 05:21:31;;;;;;;28.17;25.73;;;5.20;99.90;;;;;;4980223;28;20439;-83
2020/12/18 05:23:57;;;;;;;27.90;25.57;;;5.30;99.90;;;;;;4973496;28;20587;-88
2020/12/18 05:26:26;;;;;;;32.20;29.40;;;5.30;99.90;;;;;;4974678;28;20825;-85
2020/12/18 05:29:02;;;;;;;31.40;28.60;;;5.30;99.90;;;;;;4973295;28;20581;-85
2020/12/18 05:31:30;;;;;;;29.53;27.03;;;5.30;99.90;;;;;;4973451;28;20448;-85
2020/12/18 05:33:59;;;;;;;27.23;24.50;;;5.30;99.90;;;;;;4972798;28;21193;-85
2020/12/18 05:36:26;;;;;;;30.47;27.90;;;5.30;99.90;;;;;;4973098;28;20461;-86
2020/12/18 05:38:53;;;;;;;29.37;26.87;;;5.30;99.90;;;;;;4973132;28;20461;-85
2020/12/18 05:41:22;;;;;;;30.13;27.07;;;5.30;99.90;;;;;;4973422;28;20459;-85
2020/12/18 05:43:49;;;;;;;29.00;26.30;;;5.30;99.90;;;;;;4973346;28;20543;-85
2020/12/18 05:46:21;;;;;;;27.73;25.13;;;5.30;99.90;;;;;;4972797;28;20806;-87
2020/12/18 05:51:39;;;;;;;27.53;25.10;;;5.30;99.90;;;;;;4971092;23;20524;-91
2020/12/18 05:54:32;;;;;;;28.97;26.27;;;5.30;99.90;;;;;;5025717;28;20449;-87
2020/12/18 05:56:59;;;;;;;29.20;26.80;;;5.40;99.90;;;;;;5002233;28;20463;-89
2020/12/18 05:59:27;;;;;;;29.47;27.03;;;5.50;99.90;;;;;;5014164;28;20453;-89
2020/12/18 06:01:55;;;;;;;31.53;28.67;;;5.50;99.90;;;;;;5013852;28;20491;-89
2020/12/18 06:04:22;;;;;;;30.60;27.87;;;5.60;99.90;;;;;;5015128;28;20496;-88
2020/12/18 06:06:51;;;;;;;31.07;28.27;;;5.70;99.90;;;;;;5012628;28;20452;-89
2020/12/18 06:09:19;;;;;;;26.77;24.50;;;5.70;99.90;;;;;;5011916;28;20455;-88
2020/12/18 06:11:46;;;;;;;30.43;27.80;;;5.70;99.90;;;;;;5011214;28;20457;-88
2020/12/18 06:14:14;;;;;;;30.47;27.93;;;5.50;99.90;;;;;;5011766;28;20463;-89
2020/12/18 06:16:53;;;;;;;29.10;26.50;;;5.50;99.90;;;;;;5024467;28;20449;-90
2020/12/18 06:19:22;;;;;;;29.07;26.57;;;5.70;99.90;;;;;;5012069;28;20459;-88
2020/12/18 06:21:53;;;;;;;27.73;25.27;;;5.70;99.90;;;;;;5017529;28;20494;-87
2020/12/18 06:24:19;;;;;;;27.63;25.17;;;5.80;99.90;;;;;;5018138;28;20454;-88
2020/12/18 06:26:46;;;;;;;26.97;24.77;;;5.90;99.90;;;;;;5032575;28;20506;-88
2020/12/18 06:29:17;;;;;;;26.97;24.67;;;5.90;99.90;;;;;;5032248;28;20455;-87
2020/12/18 06:31:43;;;;;;;27.83;25.33;;;5.90;99.90;;;;;;5030872;28;20457;-87
2020/12/18 06:34:10;;;;;;;27.53;25.03;;;5.80;99.90;;;;;;5032740;28;20967;-88
2020/12/18 06:36:57;;;;;;;26.17;24.17;;;5.80;99.90;;;;;;5034206;28;20491;-90
2020/12/18 06:39:25;;;;;;;27.23;24.97;;;5.80;99.90;;;;;;5030739;28;20457;-74
2020/12/18 06:42:09;;;;;;;32.37;28.70;;;5.90;99.90;;;;;;5040889;28;20483;-85
2020/12/18 06:44:37;;;;;;;33.03;30.33;;;5.90;99.90;;;;;;5046432;28;20483;-91
2020/12/18 06:47:11;;;;;;;36.03;32.83;;;5.90;99.90;;;;;;5042901;28;20451;-90
2020/12/18 06:50:04;;;;;;;29.07;26.43;;;5.80;99.90;;;;;;5036474;28;20431;-85
2020/12/18 06:52:46;;;;;;;32.37;29.20;;;5.70;99.90;;;;;;5030836;28;20479;-84
2020/12/18 06:55:14;;;;;;;31.60;28.80;;;5.70;99.90;;;;;;5037689;28;20451;-90
2020/12/18 06:57:41;;;;;;;27.37;24.73;;;5.60;99.90;;;;;;5038068;28;20455;-91
2020/12/18 07:00:26;;;;;;;27.30;24.93;;;5.60;99.90;;;;;;5035188;28;20453;-91
2020/12/18 07:02:52;;;;;;;26.87;24.57;;;5.60;99.90;;;;;;5036052;28;20477;-86
2020/12/18 07:05:32;;;;;;;26.93;24.30;;;5.60;99.90;;;;;;5030972;28;20456;-87
2020/12/18 07:08:01;;;;;;;26.27;24.10;;;5.60;99.90;;;;;;5030611;28;20456;-83
2020/12/18 07:10:28;;;;;;;26.27;24.00;;;5.60;99.90;;;;;;5033389;28;20444;-90
2020/12/18 07:15:36;;;;;;;25.73;23.50;;;5.60;99.90;;;;;;5503319;23;20443;-89
2020/12/18 07:18:25;;;;;;;25.10;23.10;;;5.60;99.90;;;;;;4984748;28;20520;-89
2020/12/18 07:20:56;;;;;;;24.27;22.20;;;5.70;99.90;;;;;;4990797;28;20468;-89
2020/12/18 07:26:13;;;;;;;26.00;23.73;;;5.80;99.90;;;;;;5755784;23;20500;-89
2020/12/18 07:31:28;;;;;;;26.83;24.50;;;5.80;99.90;;;;;;4883873;26;20499;-89
2020/12/18 07:33:55;;;;;;;27.43;25.13;;;5.90;99.90;;;;;;4979357;29;20477;-89
2020/12/18 07:36:23;;;;;;;27.03;24.50;;;6.00;99.90;;;;;;4965618;29;20507;-90
2020/12/18 07:38:51;;;;;;;27.67;25.27;;;5.90;99.90;;;;;;4957172;29;21032;-74
2020/12/18 07:41:17;;;;;;;24.83;22.73;;;5.90;99.90;;;;;;4955453;29;20493;-76
2020/12/18 07:43:45;;;;;;;28.30;25.60;;;5.90;99.90;;;;;;4955599;29;20490;-74
2020/12/18 07:46:13;;;;;;;25.87;23.77;;;6.00;99.90;;;;;;4955153;29;20470;-75
2020/12/18 07:48:41;;;;;;;24.80;22.70;;;5.90;99.90;;;;;;4955180;29;20454;-75
2020/12/18 07:51:09;;;;;;;26.93;24.50;;;5.90;99.90;;;;;;4955499;29;20460;-84
2020/12/18 07:53:42;;;;;;;28.33;24.17;;;6.00;99.90;;;;;;4955957;29;20454;-81
2020/12/18 07:56:11;;;;;;;27.20;24.97;;;6.00;99.90;;;;;;4953915;29;20798;-80
2020/12/18 07:58:54;;;;;;;26.60;24.20;;;6.00;99.90;;;;;;4955467;29;20486;-81
2020/12/18 08:01:21;;;;;;;25.33;23.33;;;6.10;99.90;;;;;;4953494;29;20557;-80
2020/12/18 08:03:50;;;;;;;26.87;24.27;;;6.20;99.90;;;;;;4955271;29;20494;-81
2020/12/18 08:06:18;;;;;;;26.50;24.20;;;6.20;99.90;;;;;;4955402;29;20473;-81
2020/12/18 08:08:54;;;;;;;26.17;23.67;;;6.20;99.90;;;;;;4955365;29;20455;-81
2020/12/18 08:11:22;;;;;;;26.20;23.80;;;6.20;99.90;;;;;;4955129;29;20458;-81
2020/12/18 08:13:48;;;;;;;24.97;22.73;;;6.30;99.90;;;;;;4955086;29;20508;-80
2020/12/18 08:16:17;;;;;;;24.13;22.13;;;6.20;99.90;;;;;;4955125;29;20454;-80
2020/12/18 08:18:48;;;;;;;25.93;23.60;;;6.20;99.90;;;;;;4954910;29;20467;-80
2020/12/18 08:21:19;;;;;;;25.43;23.37;;;6.40;99.90;;;;;;4953901;29;20556;-80
2020/12/18 08:23:48;;;;;;;23.87;21.43;;;6.40;99.90;;;;;;4954982;29;20853;-80
2020/12/18 08:26:15;;;;;;;23.07;21.03;;;6.50;99.90;;;;;;4954697;28;20485;-80
2020/12/18 08:28:43;;;;;;;23.77;21.90;;;6.40;99.90;;;;;;4954820;28;20451;-80
2020/12/18 08:31:11;;;;;;;27.57;23.40;;;6.40;99.90;;;;;;4954674;29;20804;-80
2020/12/18 08:33:47;;;;;;;22.93;21.13;;;6.40;99.90;;;;;;4954905;29;20459;-80
2020/12/18 08:36:15;;;;;;;26.50;24.10;;;6.50;99.90;;;;;;4954634;29;20467;-80
2020/12/18 08:38:42;;;;;;;24.13;22.00;;;6.50;99.90;;;;;;4954627;29;20667;-80
2020/12/18 08:41:08;;;;;;;26.17;23.87;;;6.70;99.90;;;;;;4954353;29;20460;-81
2020/12/18 08:43:35;;;;;;;24.10;21.60;;;6.80;99.90;;;;;;4954562;29;20519;-81
2020/12/18 08:46:01;;;;;;;24.93;22.43;;;6.90;99.90;;;;;;4955140;29;20511;-81
2020/12/18 08:48:29;;;;;;;22.73;20.87;;;6.90;99.90;;;;;;4954624;29;20873;-80
2020/12/18 08:51:00;;;;;;;24.40;22.27;;;7.00;99.90;;;;;;4954628;29;20460;-80
2020/12/18 08:53:33;;;;;;;22.73;20.80;;;7.00;99.90;;;;;;4952155;29;20448;-81
2020/12/18 08:56:02;;;;;;;25.57;23.23;;;7.10;99.90;;;;;;4954226;29;20906;-81
2020/12/18 08:58:33;;;;;;;24.70;22.50;;;7.20;99.90;;;;;;4951032;29;20468;-82
2020/12/18 09:01:00;;;;;;;33.53;23.57;;;7.20;99.90;;;;;;4946928;29;20543;-81
2020/12/18 09:03:26;;;;;;;22.60;20.40;;;7.10;99.90;;;;;;4940300;29;20862;-82
2020/12/18 09:05:53;;;;;;;24.53;22.23;;;7.10;99.90;;;;;;4935659;29;20869;-83
2020/12/18 09:08:19;;;;;;;29.13;24.40;;;7.20;99.90;;;;;;4954603;29;20863;-82
2020/12/18 09:10:52;;;;;;;24.27;21.77;;;7.20;99.90;;;;;;4954972;29;20475;-82
2020/12/18 09:13:20;;;;;;;22.50;20.60;;;7.30;99.90;;;;;;4955005;28;20499;-82
2020/12/18 09:16:03;;;;;;;22.83;20.90;;;7.30;99.90;;;;;;4944642;29;20449;-83
2020/12/18 09:18:31;;;;;;;25.57;22.70;;;7.60;99.90;;;;;;4935728;29;20473;-83
2020/12/18 09:21:09;;;;;;;23.00;20.57;;;7.50;99.90;;;;;;4935277;29;20461;-82
2020/12/18 09:23:35;;;;;;;22.90;21.00;;;7.50;99.90;;;;;;4935433;29;20488;-82
2020/12/18 09:26:02;;;;;;;22.30;20.40;;;7.40;99.90;;;;;;4935507;29;20516;-81
2020/12/18 09:28:35;;;;;;;22.80;20.90;;;7.60;99.90;;;;;;4935209;29;20461;-82
2020/12/18 09:31:01;;;;;;;30.13;22.07;;;7.60;99.90;;;;;;4934942;29;20492;-81
2020/12/18 09:33:31;;;;;;;23.47;21.10;;;7.50;99.90;;;;;;4956898;29;20452;-81
2020/12/18 09:36:00;;;;;;;22.90;21.00;;;7.60;99.90;;;;;;4958392;29;20479;-82
2020/12/18 09:38:27;;;;;;;25.53;23.30;;;7.90;99.90;;;;;;4953953;29;20526;-83
2020/12/18 09:40:54;;;;;;;20.73;18.57;;;7.80;99.90;;;;;;4953740;28;20480;-82
2020/12/18 09:43:20;;;;;;;20.80;19.10;;;8.00;99.90;;;;;;4954378;29;20893;-83
2020/12/18 09:45:47;;;;;;;22.17;20.30;;;8.10;99.90;;;;;;4955047;29;20482;-78
2020/12/18 09:48:13;;;;;;;22.03;20.10;;;8.20;99.90;;;;;;4958467;29;20456;-78
2020/12/18 09:50:41;;;;;;;21.57;19.47;;;8.70;99.90;;;;;;4957673;29;20460;-78
2020/12/18 09:53:07;;;;;;;23.50;21.50;;;9.30;99.90;;;;;;4954818;29;20448;-78
2020/12/18 09:55:33;;;;;;;20.37;18.77;;;10.00;99.90;;;;;;4954301;29;20453;-78
2020/12/18 09:58:02;;;;;;;21.20;19.40;;;10.60;99.90;;;;;;4953312;29;20468;-79
2020/12/18 10:00:28;;;;;;;20.80;19.00;;;10.90;99.90;;;;;;4953564;29;20483;-77
2020/12/18 10:02:54;;;;;;;24.00;20.90;;;11.30;99.90;;;;;;4953434;29;20496;-78
2020/12/18 10:05:20;;;;;;;19.73;18.23;;;11.20;99.90;;;;;;4972624;28;20854;-78
2020/12/18 10:07:47;;;;;;;20.43;18.83;;;11.20;99.90;;;;;;4956880;28;20452;-75
2020/12/18 10:10:14;;;;;;;20.83;18.80;;;11.20;99.90;;;;;;4953399;29;20818;-78
2020/12/18 10:12:40;;;;;;;20.00;18.27;;;11.20;99.90;;;;;;4953486;29;20842;-78
2020/12/18 10:15:06;;;;;;;20.27;18.37;;;11.40;99.90;;;;;;4953341;29;20459;-78
2020/12/18 10:17:32;;;;;;;21.73;19.77;;;11.50;99.90;;;;;;4953394;29;20465;-78
2020/12/18 10:19:58;;;;;;;19.27;17.93;;;11.70;99.90;;;;;;4953032;29;20533;-79
2020/12/18 10:22:24;;;;;;;20.83;19.20;;;11.80;99.90;;;;;;4953176;29;20500;-79
2020/12/18 10:24:52;;;;;;;19.97;18.77;;;12.00;99.90;;;;;;4954044;28;20457;-79
2020/12/18 10:27:18;;;;;;;19.07;17.77;;;12.80;99.90;;;;;;4953777;29;20520;-80
2020/12/18 10:29:44;;;;;;;18.17;16.97;;;13.10;99.90;;;;;;4952769;29;20468;-79
2020/12/18 10:32:11;;;;;;;18.80;17.50;;;12.70;99.90;;;;;;4953249;29;20456;-78
2020/12/18 10:34:37;;;;;;;19.60;18.30;;;12.90;99.90;;;;;;4953173;29;20457;-79
2020/12/18 10:37:03;;;;;;;20.03;18.73;;;13.10;99.90;;;;;;4953363;29;20461;-79
2020/12/18 10:39:30;;;;;;;19.23;18.03;;;12.80;99.90;;;;;;4953403;29;20456;-80
2020/12/18 10:41:57;;;;;;;20.07;18.67;;;13.10;99.90;;;;;;4952974;29;20464;-81
2020/12/18 10:44:23;;;;;;;20.37;19.03;;;13.10;99.90;;;;;;4953174;29;20830;-80
2020/12/18 10:46:49;;;;;;;19.53;18.13;;;13.10;99.90;;;;;;4953323;29;20457;-79
2020/12/18 10:49:17;;;;;;;18.77;17.67;;;12.30;99.90;;;;;;4950313;29;20512;-79
2020/12/18 10:51:45;;;;;;;19.10;17.70;;;12.20;99.90;;;;;;4950686;28;20472;-79
2020/12/18 10:54:11;;;;;;;20.07;18.77;;;12.10;99.90;;;;;;4951861;29;21017;-79
2020/12/18 10:56:45;;;;;;;18.67;17.67;;;12.00;99.90;;;;;;4951876;29;20465;-78
2020/12/18 10:59:12;;;;;;;18.80;17.40;;;12.10;99.90;;;;;;4952422;29;20650;-79
2020/12/18 11:01:38;;;;;;;18.33;17.13;;;12.40;99.90;;;;;;4952024;29;20511;-79
2020/12/18 11:04:05;;;;;;;17.80;16.70;;;12.50;99.90;;;;;;4952473;29;20499;-78
2020/12/18 11:06:32;;;;;;;18.60;17.40;;;12.30;99.90;;;;;;4958710;28;20452;-79
2020/12/18 11:08:59;;;;;;;20.30;18.70;;;12.50;99.90;;;;;;4971405;28;20444;-79
2020/12/18 11:11:29;;;;;;;19.93;18.73;;;12.70;99.90;;;;;;4971500;28;20459;-78
2020/12/18 11:13:55;;;;;;;20.43;18.77;;;12.90;99.90;;;;;;4971483;28;20800;-79
2020/12/18 11:16:22;;;;;;;19.17;17.97;;;13.10;99.90;;;;;;4971133;28;20447;-79
2020/12/18 11:18:48;;;;;;;18.53;17.03;;;13.30;99.90;;;;;;4971159;28;20467;-79
2020/12/18 11:21:15;;;;;;;17.50;16.40;;;13.60;99.90;;;;;;4971558;28;20459;-79
2020/12/18 11:23:42;;;;;;;18.30;17.20;;;13.70;99.90;;;;;;4970961;28;20804;-79
2020/12/18 11:26:08;;;;;;;18.63;17.33;;;13.90;99.90;;;;;;4971340;28;20463;-79
2020/12/18 11:28:34;;;;;;;20.00;18.60;;;13.50;99.90;;;;;;4971650;28;20447;-79
2020/12/18 11:31:01;;;;;;;19.00;17.47;;;13.60;99.90;;;;;;4971602;28;20486;-79
2020/12/18 11:33:28;;;;;;;18.83;17.63;;;14.00;99.90;;;;;;4971906;28;20538;-79
2020/12/18 11:35:54;;;;;;;18.27;17.10;;;14.20;99.90;;;;;;4971592;28;20530;-79
2020/12/18 11:38:21;;;;;;;18.57;17.47;;;13.80;99.90;;;;;;4971730;28;20938;-79
2020/12/18 11:40:47;;;;;;;18.30;17.03;;;14.20;99.90;;;;;;4971171;28;20451;-79
2020/12/18 11:43:14;;;;;;;18.47;17.00;;;14.40;99.90;;;;;;4971115;28;20495;-80
2020/12/18 11:45:40;;;;;;;19.33;17.97;;;14.40;99.90;;;;;;4971290;28;20460;-82
2020/12/18 11:48:06;;;;;;;18.53;17.43;;;14.20;99.90;;;;;;4971431;28;20464;-82
2020/12/18 11:50:33;;;;;;;18.27;16.97;;;14.30;99.90;;;;;;4971815;28;20466;-82
2020/12/18 11:53:00;;;;;;;18.97;17.57;;;14.20;99.90;;;;;;4971460;28;20474;-82
2020/12/18 11:55:27;;;;;;;19.60;18.27;;;14.30;99.90;;;;;;4971691;28;20459;-82
2020/12/18 11:57:53;;;;;;;19.37;18.10;;;13.80;99.90;;;;;;4971076;28;20459;-83
2020/12/18 12:00:20;;;;;;;19.57;18.37;;;13.60;99.90;;;;;;4971585;28;20484;-83
2020/12/18 12:02:48;;;;;;;20.73;18.97;;;13.20;99.90;;;;;;4972636;28;20845;-82
2020/12/18 12:05:15;;;;;;;21.10;19.43;;;13.10;99.90;;;;;;4974864;28;20451;-82
2020/12/18 12:07:42;;;;;;;20.17;18.67;;;13.10;99.90;;;;;;4959055;28;20448;-84
2020/12/18 12:10:09;;;;;;;19.47;18.13;;;13.10;99.90;;;;;;4955506;28;20820;-82
2020/12/18 12:12:35;;;;;;;20.07;18.63;;;13.40;99.90;;;;;;4955724;29;20523;-82
2020/12/18 12:15:02;;;;;;;22.10;20.30;;;13.60;99.90;;;;;;4961441;29;20448;-82
2020/12/18 12:17:28;;;;;;;18.97;17.77;;;13.60;99.90;;;;;;4972488;28;20451;-83
2020/12/18 12:19:55;;;;;;;20.00;18.70;;;13.50;99.90;;;;;;4975926;29;20456;-84
2020/12/18 12:22:21;;;;;;;19.53;17.90;;;13.70;99.90;;;;;;4965173;29;20484;-84
2020/12/18 12:24:48;;;;;;;19.60;18.33;;;14.20;99.90;;;;;;4962319;28;21010;-80
2020/12/18 12:27:14;;;;;;;21.20;19.60;;;14.60;99.90;;;;;;4962592;29;20459;-83
2020/12/18 12:29:40;;;;;;;21.23;19.70;;;14.60;99.90;;;;;;4959442;29;20445;-83
2020/12/18 12:32:06;;;;;;;17.80;16.70;;;14.70;99.90;;;;;;4958668;29;20460;-83
2020/12/18 12:34:33;;;;;;;20.97;19.70;;;14.80;99.90;;;;;;4960784;29;20534;-82
2020/12/18 12:37:00;;;;;;;19.90;18.53;;;13.90;99.90;;;;;;4955773;29;20461;-82
2020/12/18 12:39:26;;;;;;;18.43;17.23;;;13.00;99.90;;;;;;4955540;29;20467;-82
2020/12/18 12:41:54;;;;;;;19.83;18.40;;;12.50;99.90;;;;;;4953592;29;20453;-83
2020/12/18 12:44:20;;;;;;;21.07;19.37;;;12.20;99.90;;;;;;4954959;29;21006;-83
2020/12/18 12:46:46;;;;;;;19.50;17.93;;;11.90;99.90;;;;;;4955143;29;20456;-83
2020/12/18 12:49:12;;;;;;;20.80;18.80;;;11.80;99.90;;;;;;4955061;29;20460;-82
2020/12/18 12:51:38;;;;;;;19.80;18.50;;;11.90;99.90;;;;;;4954924;29;20515;-84
2020/12/18 12:54:05;;;;;;;18.77;17.60;;;12.00;99.90;;;;;;4955217;29;20441;-82
2020/12/18 12:56:31;;;;;;;18.53;17.00;;;11.90;99.90;;;;;;4955034;29;20535;-82
2020/12/18 12:58:58;;;;;;;20.60;18.97;;;11.90;99.90;;;;;;4955397;29;20541;-83
2020/12/18 13:01:24;;;;;;;20.87;19.30;;;12.00;99.90;;;;;;4955418;29;20455;-82
2020/12/18 13:03:50;;;;;;;20.77;19.27;;;11.90;99.90;;;;;;4953696;29;20538;-83